Great Meadows, New Jersey
Current Conditions -  °F | °C
As of 10:53 PM on Saturday 22 Nov 2014 (Local Time) from KSMQ Reporting Station
Overcast Overcast  
Wind Chill: 41°   Ceiling: 12000
Heat Index: 41°   Visibility: 10mi
Dew Point: 19°   Wind: 0mph
Humidity: 41%   Direction: NA
Pressure: 30.21"   Gusts: NA
Location:  40.87°N, 74.91°W
Report Text: KSMQ 230353Z AUTO 00000KT 10SM OVC120 05/M07 A3021 RMK AO2 SLP230 T00501072
Loading
Personal Weather Stations






























Interactive Weather Map New forecast layout! Learn more

10-Day Weather Forecast

Advertisements
Track Severe Weather on mobile